createdAt,value
2023-05-05T00:01:33.166Z,101231.06
2023-05-05T00:04:00.321Z,101240.75
2023-05-05T00:06:31.532Z,101235.34
2023-05-05T00:08:58.555Z,101231.75
2023-05-05T00:11:26.068Z,101237.94
2023-05-05T00:13:53.071Z,101242.28
2023-05-05T00:16:20.133Z,101232.69
2023-05-05T00:18:47.515Z,101238.09
2023-05-05T00:21:15.561Z,101244.41
2023-05-05T00:23:42.574Z,101242.91
2023-05-05T00:26:09.544Z,101235.88
2023-05-05T00:28:38.052Z,101234.00
2023-05-05T00:31:05.186Z,101238.16
2023-05-05T00:33:32.191Z,101235.22
2023-05-05T00:35:59.562Z,101240.16
2023-05-05T00:38:26.726Z,101239.06
2023-05-05T00:40:53.824Z,101238.84
2023-05-05T00:43:20.941Z,101226.25
2023-05-05T00:46:09.527Z,101228.06
2023-05-05T00:48:36.544Z,101231.59
2023-05-05T00:51:08.534Z,101248.44
2023-05-05T00:53:36.223Z,101242.34
2023-05-05T00:56:03.497Z,101238.00
2023-05-05T00:58:30.674Z,101245.19
2023-05-05T01:00:57.618Z,101242.59
2023-05-05T01:03:24.914Z,101251.59
2023-05-05T01:06:06.892Z,101256.06
2023-05-05T01:08:55.523Z,101247.91
2023-05-05T01:11:34.642Z,101252.16
2023-05-05T01:14:34.346Z,101262.72
2023-05-05T01:17:15.626Z,101262.56
2023-05-05T01:20:22.687Z,101265.25
2023-05-05T01:23:01.334Z,101267.09
2023-05-05T01:25:41.318Z,101267.97
2023-05-05T01:28:27.955Z,101269.72
2023-05-05T01:31:17.682Z,101268.84
2023-05-05T01:33:52.849Z,101273.31
2023-05-05T01:36:32.718Z,101275.16
2023-05-05T01:39:04.458Z,101282.44
2023-05-05T01:42:02.610Z,101282.44
2023-05-05T01:44:32.605Z,101286.19
2023-05-05T01:47:03.167Z,101281.88
2023-05-05T01:49:33.248Z,101287.19
2023-05-05T01:52:03.671Z,101285.59
2023-05-05T01:54:34.570Z,101290.06
2023-05-05T01:57:06.233Z,101294.50
2023-05-05T01:59:35.673Z,101291.94
2023-05-05T02:02:04.015Z,101295.53
2023-05-05T02:04:35.343Z,101294.91
2023-05-05T02:07:04.869Z,101292.59
2023-05-05T02:09:33.354Z,101296.38
2023-05-05T02:12:03.792Z,101294.97
2023-05-05T02:14:32.831Z,101284.75
2023-05-05T02:17:01.457Z,101282.41
2023-05-05T02:19:41.784Z,101285.38
2023-05-05T02:22:08.991Z,101276.06
2023-05-05T02:24:36.196Z,101284.28
2023-05-05T02:27:07.301Z,101276.59
2023-05-05T02:29:52.024Z,101272.47
2023-05-05T02:32:32.338Z,101273.75
2023-05-05T02:35:26.695Z,101282.13
2023-05-05T02:38:02.830Z,101285.09
2023-05-05T02:40:37.531Z,101284.47
2023-05-05T02:43:10.896Z,101295.19
2023-05-05T02:45:38.974Z,101301.69
2023-05-05T02:48:06.629Z,101300.94
2023-05-05T02:50:38.372Z,101294.84
2023-05-05T02:53:26.833Z,101308.34
2023-05-05T02:56:01.978Z,101306.81
2023-05-05T02:58:52.936Z,101303.53
2023-05-05T03:01:57.667Z,101300.22
2023-05-05T03:04:48.691Z,101310.22
2023-05-05T03:07:37.700Z,101306.09
2023-05-05T03:10:12.085Z,101313.50
2023-05-05T03:12:53.848Z,101314.69
2023-05-05T03:15:44.680Z,101315.03
2023-05-05T03:18:15.573Z,101317.97
2023-05-05T03:20:46.880Z,101320.72
2023-05-05T03:23:18.329Z,101313.94
2023-05-05T03:25:48.800Z,101321.22
2023-05-05T03:28:28.077Z,101330.19
2023-05-05T03:30:57.769Z,101330.31
2023-05-05T03:33:25.625Z,101325.19
2023-05-05T03:35:52.677Z,101329.78
2023-05-05T03:38:19.633Z,101329.91
2023-05-05T03:40:46.622Z,101328.97
2023-05-05T03:43:17.687Z,101334.38
2023-05-05T03:45:44.763Z,101327.41
2023-05-05T03:48:12.166Z,101330.13
2023-05-05T03:50:40.930Z,101333.78
2023-05-05T03:53:08.493Z,101342.66
2023-05-05T03:55:35.529Z,101345.44
2023-05-05T03:58:02.535Z,101355.22
2023-05-05T04:00:29.501Z,101353.50
2023-05-05T04:02:56.973Z,101353.50
2023-05-05T04:05:26.482Z,101364.94
2023-05-05T04:07:54.017Z,101369.47
2023-05-05T04:10:21.522Z,101364.19
2023-05-05T04:12:48.896Z,101354.47
2023-05-05T04:15:16.104Z,101365.06
2023-05-05T04:17:43.691Z,101363.44
2023-05-05T04:20:11.355Z,101369.72
2023-05-05T04:22:38.580Z,101369.81
2023-05-05T04:25:06.676Z,101374.09
2023-05-05T04:27:33.714Z,101384.63
2023-05-05T04:30:01.086Z,101383.66
2023-05-05T04:32:28.395Z,101380.97
2023-05-05T04:34:55.804Z,101376.44
2023-05-05T04:37:23.376Z,101386.88
2023-05-05T04:39:53.138Z,101394.56
2023-05-05T04:42:20.367Z,101394.09
2023-05-05T04:44:47.397Z,101395.16
2023-05-05T04:47:14.895Z,101394.53
2023-05-05T04:49:42.466Z,101400.59
2023-05-05T04:52:11.817Z,101400.78
2023-05-05T04:54:38.917Z,101395.16
2023-05-05T04:57:06.314Z,101401.00
2023-05-05T04:59:33.372Z,101391.38
2023-05-05T05:02:00.374Z,101400.16
2023-05-05T05:04:27.949Z,101399.22
2023-05-05T05:06:56.229Z,101399.16
2023-05-05T05:09:25.468Z,101398.34
2023-05-05T05:11:53.352Z,101399.50
2023-05-05T05:14:21.787Z,101403.03
2023-05-05T05:16:52.298Z,101402.69
2023-05-05T05:19:21.295Z,101395.78
2023-05-05T05:21:48.471Z,101398.28
2023-05-05T05:24:16.280Z,101406.31
2023-05-05T05:26:43.892Z,101411.19
2023-05-05T05:29:11.164Z,101413.41
2023-05-05T05:31:39.739Z,101408.09
2023-05-05T05:34:07.334Z,101407.66
2023-05-05T05:36:35.149Z,101413.66
2023-05-05T05:39:02.910Z,101408.31
2023-05-05T05:41:29.896Z,101400.94
2023-05-05T05:43:57.156Z,101394.34
2023-05-05T05:46:24.325Z,101385.03
2023-05-05T05:48:51.272Z,101389.25
2023-05-05T05:51:18.889Z,101393.75
2023-05-05T05:53:47.303Z,101408.94
2023-05-05T05:56:14.392Z,101409.63
2023-05-05T05:58:42.363Z,101422.63
2023-05-05T06:01:10.161Z,101424.06
2023-05-05T06:03:37.313Z,101422.25
2023-05-05T06:06:04.612Z,101416.56
2023-05-05T06:08:31.551Z,101425.53
2023-05-05T06:11:00.515Z,101430.47
2023-05-05T06:13:27.644Z,101428.38
2023-05-05T06:15:54.769Z,101420.63
2023-05-05T06:18:21.875Z,101424.34
2023-05-05T06:20:50.883Z,101427.94
2023-05-05T06:23:19.066Z,101427.16
2023-05-05T06:25:55.638Z,101439.53
2023-05-05T06:28:22.785Z,101448.25
2023-05-05T06:30:49.751Z,101446.59
2023-05-05T06:33:16.802Z,101450.91
2023-05-05T06:35:43.794Z,101448.97
2023-05-05T06:38:10.820Z,101446.81
2023-05-05T06:40:37.796Z,101448.09
2023-05-05T06:43:05.342Z,101454.03
2023-05-05T06:45:36.772Z,101449.28
2023-05-05T06:48:03.939Z,101457.69
2023-05-05T06:50:30.939Z,101460.59
2023-05-05T06:52:57.933Z,101464.44
2023-05-05T06:55:25.407Z,101460.31
2023-05-05T06:57:52.495Z,101469.47
2023-05-05T07:00:19.972Z,101467.06
2023-05-05T07:02:47.628Z,101470.28
2023-05-05T07:05:14.664Z,101473.31
2023-05-05T07:07:57.320Z,101476.28
2023-05-05T07:10:25.880Z,101475.72
2023-05-05T07:12:54.798Z,101483.94
2023-05-05T07:15:28.534Z,101485.56
2023-05-05T07:17:57.272Z,101485.66
2023-05-05T07:20:24.717Z,101487.47
2023-05-05T07:22:51.806Z,101484.53
2023-05-05T07:25:18.945Z,101484.38
2023-05-05T07:27:46.072Z,101482.59
2023-05-05T07:30:17.356Z,101489.41
2023-05-05T07:32:45.956Z,101488.38
2023-05-05T07:35:13.525Z,101487.34
2023-05-05T07:37:40.516Z,101488.28
2023-05-05T07:40:08.805Z,101493.38
2023-05-05T07:42:36.237Z,101487.50
2023-05-05T07:45:04.232Z,101494.97
2023-05-05T07:47:33.410Z,101499.88
2023-05-05T07:50:01.152Z,101505.47
2023-05-05T07:52:44.266Z,101499.63
2023-05-05T07:55:15.258Z,101491.84
2023-05-05T07:57:42.263Z,101499.59
2023-05-05T08:00:10.774Z,101495.91
2023-05-05T08:02:41.370Z,101489.00
2023-05-05T08:05:09.459Z,101486.06
2023-05-05T08:07:40.988Z,101495.38
2023-05-05T08:10:11.250Z,101498.38
2023-05-05T08:12:38.985Z,101482.56
2023-05-05T08:15:06.883Z,101496.44
2023-05-05T08:17:55.782Z,101497.75
2023-05-05T08:20:27.209Z,101489.22
2023-05-05T08:22:54.269Z,101482.19
2023-05-05T08:25:21.203Z,101476.44
2023-05-05T08:27:48.231Z,101480.56
2023-05-05T08:30:17.162Z,101482.59
2023-05-05T08:32:44.263Z,101475.81
2023-05-05T08:35:11.880Z,101478.38
2023-05-05T08:37:39.318Z,101475.34
2023-05-05T08:40:07.276Z,101475.81
2023-05-05T08:42:38.389Z,101477.53
2023-05-05T08:45:10.922Z,101477.53
2023-05-05T08:47:39.170Z,101472.28
2023-05-05T08:50:10.180Z,101469.03
2023-05-05T08:52:44.484Z,101470.94
2023-05-05T08:55:24.455Z,101472.47
2023-05-05T08:57:56.444Z,101474.78
2023-05-05T09:00:26.432Z,101482.97
2023-05-05T09:02:57.415Z,101492.41
2023-05-05T09:05:26.006Z,101489.06
2023-05-05T09:07:53.438Z,101488.69
2023-05-05T09:10:20.906Z,101489.13
2023-05-05T09:12:50.392Z,101487.44
2023-05-05T09:15:17.544Z,101493.97
2023-05-05T09:17:44.650Z,101490.63
2023-05-05T09:20:14.368Z,101501.59
2023-05-05T09:22:44.813Z,101488.56
2023-05-05T09:25:15.080Z,101497.06
2023-05-05T09:27:43.562Z,101502.19
2023-05-05T09:30:14.673Z,101497.69
2023-05-05T09:32:49.543Z,101501.75
2023-05-05T09:35:19.089Z,101494.44
2023-05-05T09:37:47.007Z,101493.56
2023-05-05T09:40:17.305Z,101492.06
2023-05-05T09:42:47.614Z,101493.13
2023-05-05T09:45:17.633Z,101494.59
2023-05-05T09:47:49.255Z,101489.84
2023-05-05T09:50:20.998Z,101488.88
2023-05-05T09:52:58.624Z,101487.41
2023-05-05T09:55:25.984Z,101478.06
2023-05-05T09:57:53.126Z,101477.72
2023-05-05T10:00:21.175Z,101476.47
2023-05-05T10:02:48.283Z,101476.94
2023-05-05T10:05:18.231Z,101486.31
2023-05-05T10:07:47.602Z,101480.19
2023-05-05T10:10:18.442Z,101478.34
2023-05-05T10:12:47.568Z,101466.94
2023-05-05T10:15:16.401Z,101474.59
2023-05-05T10:20:19.202Z,101468.00
2023-05-05T10:22:52.799Z,101466.78
2023-05-05T10:25:42.220Z,101469.81
2023-05-05T10:28:19.658Z,101470.25
2023-05-05T10:30:52.746Z,101470.34
2023-05-05T10:33:39.092Z,101457.88
2023-05-05T10:36:07.748Z,101456.56
2023-05-05T10:38:37.241Z,101444.34
2023-05-05T10:41:04.707Z,101446.19
2023-05-05T10:43:32.044Z,101444.44
2023-05-05T10:46:00.763Z,101448.28
2023-05-05T10:48:47.274Z,101441.16
2023-05-05T10:51:42.031Z,101442.41
2023-05-05T10:54:52.412Z,101440.81
2023-05-05T10:57:26.958Z,101436.63
2023-05-05T10:59:53.978Z,101442.94
2023-05-05T11:02:26.395Z,101430.78
2023-05-05T11:05:09.842Z,101428.66
2023-05-05T11:07:37.821Z,101423.31
2023-05-05T11:10:07.999Z,101424.88
2023-05-05T11:13:02.864Z,101427.66
2023-05-05T11:15:37.288Z,101424.56
2023-05-05T11:18:07.796Z,101431.56
2023-05-05T11:20:35.024Z,101447.72
2023-05-05T11:23:05.479Z,101448.94
2023-05-05T11:25:42.176Z,101461.66
2023-05-05T11:28:16.303Z,101459.22
2023-05-05T11:30:56.056Z,101457.06
2023-05-05T11:33:29.841Z,101453.91
2023-05-05T11:36:19.940Z,101455.81
2023-05-05T11:39:11.896Z,101461.28
2023-05-05T11:42:10.204Z,101471.19
2023-05-05T11:44:38.153Z,101474.78
2023-05-05T11:47:05.100Z,101483.47
2023-05-05T11:49:32.956Z,101494.66
2023-05-05T11:52:04.300Z,101516.56
2023-05-05T11:54:32.027Z,101531.56
2023-05-05T11:57:05.598Z,101545.72
2023-05-05T11:59:34.625Z,101561.81
2023-05-05T12:02:04.483Z,101566.53
2023-05-05T12:04:32.212Z,101558.47
2023-05-05T12:06:59.925Z,101557.84
2023-05-05T12:09:27.464Z,101567.22
2023-05-05T12:11:59.664Z,101563.75
2023-05-05T12:14:27.517Z,101559.28
2023-05-05T12:17:07.756Z,101541.84
2023-05-05T12:19:36.202Z,101545.19
2023-05-05T12:22:04.964Z,101538.56
2023-05-05T12:24:32.122Z,101531.03
2023-05-05T12:27:10.676Z,101540.16
2023-05-05T12:29:37.993Z,101538.75
2023-05-05T12:32:05.588Z,101534.78
2023-05-05T12:34:33.365Z,101532.09
2023-05-05T12:37:01.143Z,101532.09
2023-05-05T12:39:38.240Z,101528.19
2023-05-05T12:42:06.418Z,101519.69
2023-05-05T12:44:37.937Z,101534.72
2023-05-05T12:47:05.610Z,101533.00
2023-05-05T12:49:45.232Z,101529.44
2023-05-05T12:52:12.741Z,101524.09
2023-05-05T12:54:59.664Z,101516.50
2023-05-05T12:57:27.208Z,101517.88
2023-05-05T12:59:54.775Z,101512.88
2023-05-05T13:02:21.961Z,101500.84
2023-05-05T13:04:53.480Z,101513.72
2023-05-05T13:07:22.153Z,101521.53
2023-05-05T13:09:50.920Z,101518.22
2023-05-05T13:12:18.748Z,101510.66
2023-05-05T13:14:46.815Z,101507.75
2023-05-05T13:17:14.636Z,101518.72
2023-05-05T13:19:42.743Z,101519.16
2023-05-05T13:22:10.317Z,101524.84
2023-05-05T13:24:47.161Z,101533.16
2023-05-05T13:27:20.126Z,101522.06
2023-05-05T13:29:47.083Z,101522.28
2023-05-05T13:32:14.096Z,101530.38
2023-05-05T13:34:42.472Z,101531.38
2023-05-05T13:37:09.660Z,101538.50
2023-05-05T13:39:37.020Z,101537.81
2023-05-05T13:42:04.251Z,101547.72
2023-05-05T13:44:31.452Z,101553.19
2023-05-05T13:46:58.494Z,101549.75
2023-05-05T13:49:25.711Z,101538.34
2023-05-05T13:51:52.768Z,101530.28
2023-05-05T13:54:19.743Z,101525.69
2023-05-05T13:56:46.729Z,101520.97
2023-05-05T13:59:13.791Z,101518.09
2023-05-05T14:01:40.991Z,101515.47
2023-05-05T14:04:08.364Z,101529.94
2023-05-05T14:06:36.155Z,101526.78
2023-05-05T14:09:05.974Z,101532.53
2023-05-05T14:11:33.626Z,101545.22
2023-05-05T14:14:00.782Z,101547.66
2023-05-05T14:16:27.877Z,101542.59
2023-05-05T14:18:55.005Z,101544.44
2023-05-05T14:21:22.029Z,101549.72
2023-05-05T14:23:49.088Z,101558.75
2023-05-05T14:26:16.207Z,101556.38
2023-05-05T14:28:43.554Z,101564.50
2023-05-05T14:31:11.258Z,101559.28
2023-05-05T14:33:38.509Z,101551.16
2023-05-05T14:36:05.948Z,101561.41
2023-05-05T14:38:32.955Z,101549.38
2023-05-05T14:41:00.128Z,101552.41
2023-05-05T14:43:27.120Z,101536.16
2023-05-05T14:45:54.278Z,101534.84
2023-05-05T14:48:22.476Z,101539.72
2023-05-05T14:50:49.990Z,101529.66
2023-05-05T14:53:18.928Z,101522.34
2023-05-05T14:55:45.955Z,101529.84
2023-05-05T14:58:12.928Z,101525.81
2023-05-05T15:00:39.871Z,101514.66
2023-05-05T15:03:07.007Z,101516.16
2023-05-05T15:05:33.993Z,101507.38
2023-05-05T15:08:01.041Z,101491.63
2023-05-05T15:10:28.021Z,101503.34
2023-05-05T15:12:55.071Z,101501.50
2023-05-05T15:15:22.137Z,101508.28
2023-05-05T15:17:49.180Z,101509.63
2023-05-05T15:20:16.225Z,101500.59
2023-05-05T15:22:43.279Z,101497.19
2023-05-05T15:25:12.440Z,101492.88
2023-05-05T15:27:39.804Z,101491.31
2023-05-05T15:30:07.790Z,101492.31
2023-05-05T15:32:34.875Z,101489.88
2023-05-05T15:35:02.040Z,101490.13
2023-05-05T15:37:29.200Z,101478.03
2023-05-05T15:39:56.379Z,101476.41
2023-05-05T15:42:23.676Z,101487.13
2023-05-05T15:44:51.673Z,101483.63
2023-05-05T15:47:18.762Z,101477.41
2023-05-05T15:49:45.852Z,101471.72
2023-05-05T15:52:13.914Z,101465.56
2023-05-05T15:54:41.417Z,101470.13
2023-05-05T15:57:08.571Z,101466.09
2023-05-05T15:59:35.719Z,101465.94
2023-05-05T16:02:02.883Z,101465.34
2023-05-05T16:04:30.173Z,101469.75
2023-05-05T16:06:58.068Z,101458.84
2023-05-05T16:09:25.284Z,101459.66
2023-05-05T16:11:55.305Z,101460.66
2023-05-05T16:14:22.424Z,101467.28
2023-05-05T16:16:49.492Z,101467.31
2023-05-05T16:19:16.618Z,101465.63
2023-05-05T16:21:43.617Z,101457.25
2023-05-05T16:24:10.651Z,101462.25
2023-05-05T16:26:37.742Z,101455.34
2023-05-05T16:29:04.785Z,101455.94
2023-05-05T16:31:33.988Z,101451.44
2023-05-05T16:34:01.113Z,101455.41
2023-05-05T16:36:28.784Z,101462.13
2023-05-05T16:38:56.507Z,101458.00
2023-05-05T16:41:23.890Z,101465.91
2023-05-05T16:43:50.881Z,101470.00
2023-05-05T16:46:18.289Z,101468.16
2023-05-05T16:48:46.014Z,101465.44
2023-05-05T16:51:13.075Z,101461.16
2023-05-05T16:53:40.099Z,101455.88
2023-05-05T16:56:07.297Z,101461.81
2023-05-05T16:58:34.285Z,101461.88
2023-05-05T17:01:02.739Z,101465.69
2023-05-05T17:03:30.504Z,101474.69
2023-05-05T17:05:58.152Z,101477.16
2023-05-05T17:08:25.172Z,101476.75
2023-05-05T17:10:52.177Z,101480.59
2023-05-05T17:13:19.427Z,101476.41
2023-05-05T17:15:46.880Z,101466.00
2023-05-05T17:18:13.893Z,101473.47
2023-05-05T17:20:40.970Z,101466.59
2023-05-05T17:23:08.800Z,101458.19
2023-05-05T17:25:36.036Z,101458.19
2023-05-05T17:28:03.189Z,101464.69
2023-05-05T17:30:30.248Z,101466.69
2023-05-05T17:32:57.596Z,101467.47
2023-05-05T17:35:24.615Z,101468.16
2023-05-05T17:37:51.845Z,101476.59
2023-05-05T17:40:18.840Z,101470.09
2023-05-05T17:42:45.940Z,101467.03
2023-05-05T17:45:13.014Z,101461.94
2023-05-05T17:47:40.091Z,101465.50
2023-05-05T17:50:07.694Z,101457.31
2023-05-05T17:52:34.632Z,101466.19
2023-05-05T17:55:01.616Z,101473.47
2023-05-05T17:57:28.679Z,101467.31
2023-05-05T17:59:55.671Z,101467.94
2023-05-05T18:02:24.004Z,101478.34
2023-05-05T18:04:51.235Z,101475.44
2023-05-05T18:07:18.197Z,101477.88
2023-05-05T18:09:45.252Z,101478.38
2023-05-05T18:12:12.192Z,101483.44
2023-05-05T18:14:39.224Z,101479.59
2023-05-05T18:17:06.172Z,101475.81
2023-05-05T18:19:33.116Z,101473.91
2023-05-05T18:22:00.166Z,101478.09
2023-05-05T18:24:28.137Z,101475.56
2023-05-05T18:26:55.435Z,101479.16
2023-05-05T18:29:22.544Z,101480.00
2023-05-05T18:31:53.032Z,101483.66
2023-05-05T18:34:21.100Z,101484.97
2023-05-05T18:36:51.034Z,101485.19
2023-05-05T18:39:18.054Z,101478.03
2023-05-05T18:41:45.140Z,101477.09
2023-05-05T18:44:12.207Z,101482.34
2023-05-05T18:46:39.339Z,101484.88
2023-05-05T18:49:06.420Z,101491.81
2023-05-05T18:51:33.416Z,101491.63
2023-05-05T18:54:03.131Z,101498.28
2023-05-05T18:56:31.176Z,101503.22
2023-05-05T18:58:58.243Z,101507.28
2023-05-05T19:01:25.448Z,101516.66
2023-05-05T19:03:52.573Z,101511.81
2023-05-05T19:06:19.579Z,101509.63
2023-05-05T19:08:47.104Z,101506.47
2023-05-05T19:11:15.109Z,101509.47
2023-05-05T19:13:42.547Z,101511.63
2023-05-05T19:16:11.172Z,101507.66
2023-05-05T19:18:38.795Z,101516.84
2023-05-05T19:21:05.823Z,101510.13
2023-05-05T19:23:33.404Z,101515.75
2023-05-05T19:26:00.638Z,101513.47
2023-05-05T19:28:27.634Z,101525.22
2023-05-05T19:30:54.688Z,101525.44
2023-05-05T19:33:22.235Z,101531.00
2023-05-05T19:35:49.874Z,101533.88
2023-05-05T19:38:16.916Z,101531.50
2023-05-05T19:40:43.886Z,101533.53
2023-05-05T19:43:10.847Z,101536.38
2023-05-05T19:45:38.037Z,101536.63
2023-05-05T19:48:05.693Z,101535.91
2023-05-05T19:50:32.709Z,101544.00
2023-05-05T19:52:59.674Z,101530.19
2023-05-05T19:55:27.036Z,101545.34
2023-05-05T19:57:54.110Z,101545.56
2023-05-05T20:00:21.617Z,101551.94
2023-05-05T20:02:49.033Z,101546.00
2023-05-05T20:05:17.386Z,101546.22
2023-05-05T20:07:46.787Z,101551.63
2023-05-05T20:10:13.982Z,101547.38
2023-05-05T20:12:48.869Z,101541.41
2023-05-05T20:15:18.954Z,101546.00
2023-05-05T20:17:47.820Z,101537.41
2023-05-05T20:20:21.861Z,101540.16
2023-05-05T20:22:49.587Z,101541.13
2023-05-05T20:25:16.752Z,101551.81
2023-05-05T20:27:45.717Z,101548.41
2023-05-05T20:30:13.188Z,101544.09
2023-05-05T20:32:40.885Z,101546.81
2023-05-05T20:35:08.991Z,101547.88
2023-05-05T20:37:36.029Z,101543.66
2023-05-05T20:40:03.803Z,101549.09
2023-05-05T20:42:30.914Z,101544.81
2023-05-05T20:45:00.949Z,101549.31
2023-05-05T20:47:28.029Z,101541.50
2023-05-05T20:49:55.034Z,101543.38
2023-05-05T20:52:22.138Z,101544.34
2023-05-05T20:54:49.080Z,101536.56
2023-05-05T20:57:16.124Z,101535.75
2023-05-05T20:59:43.094Z,101536.75
2023-05-05T21:02:10.255Z,101537.75
2023-05-05T21:04:37.303Z,101536.97
2023-05-05T21:07:04.453Z,101534.47
2023-05-05T21:09:31.647Z,101538.94
2023-05-05T21:11:58.782Z,101538.16
2023-05-05T21:14:25.925Z,101542.59
2023-05-05T21:16:52.981Z,101537.38
2023-05-05T21:19:19.929Z,101542.69
2023-05-05T21:21:47.600Z,101539.22
2023-05-05T21:24:14.673Z,101544.53
2023-05-05T21:26:45.625Z,101540.19
2023-05-05T21:29:12.657Z,101545.53
2023-05-05T21:31:39.680Z,101537.66
2023-05-05T21:34:06.693Z,101537.72
2023-05-05T21:36:33.922Z,101540.38
2023-05-05T21:39:01.224Z,101537.75
2023-05-05T21:41:28.362Z,101537.75
2023-05-05T21:43:55.755Z,101529.84
2023-05-05T21:46:22.988Z,101535.22
2023-05-05T21:48:50.086Z,101538.75
2023-05-05T21:51:17.465Z,101538.78
2023-05-05T21:53:44.674Z,101535.31
2023-05-05T21:56:11.661Z,101533.56
2023-05-05T21:58:38.707Z,101530.94
2023-05-05T22:01:05.807Z,101532.66
2023-05-05T22:03:34.569Z,101532.63
2023-05-05T22:06:01.784Z,101541.38
2023-05-05T22:08:28.767Z,101532.63
2023-05-05T22:10:55.776Z,101538.75
2023-05-05T22:13:22.796Z,101533.47
2023-05-05T22:15:50.239Z,101532.59
2023-05-05T22:18:17.264Z,101534.41
2023-05-05T22:20:44.539Z,101537.94
2023-05-05T22:23:11.718Z,101542.38
2023-05-05T22:25:38.645Z,101540.66
2023-05-05T22:28:05.658Z,101540.69
2023-05-05T22:30:32.872Z,101539.78
2023-05-05T22:32:59.863Z,101535.34
2023-05-05T22:35:27.412Z,101542.38
2023-05-05T22:37:54.431Z,101537.09
2023-05-05T22:40:21.455Z,101534.47
2023-05-05T22:42:48.435Z,101531.88
2023-05-05T22:45:15.726Z,101528.44
2023-05-05T22:47:42.757Z,101529.38
2023-05-05T22:50:10.317Z,101525.94
2023-05-05T22:52:37.317Z,101526.88
2023-05-05T22:55:04.807Z,101531.28
2023-05-05T22:57:34.695Z,101526.91
2023-05-05T23:01:07.263Z,101526.09
2023-05-05T23:03:34.404Z,101527.88
2023-05-05T23:06:01.380Z,101526.16
2023-05-05T23:08:28.338Z,101517.34
2023-05-05T23:10:56.117Z,101515.63
2023-05-05T23:13:23.211Z,101519.97
2023-05-05T23:15:50.293Z,101519.91
2023-05-05T23:18:17.307Z,101519.81
2023-05-05T23:20:44.352Z,101526.75
2023-05-05T23:23:11.338Z,101520.56
2023-05-05T23:25:38.329Z,101521.38
2023-05-05T23:28:05.319Z,101518.72
2023-05-05T23:30:32.349Z,101518.69
2023-05-05T23:33:00.911Z,101516.09
2023-05-05T23:35:27.885Z,101518.69
2023-05-05T23:37:54.893Z,101525.75
2023-05-05T23:40:22.274Z,101524.84
2023-05-05T23:42:49.312Z,101523.13
2023-05-05T23:45:18.635Z,101526.66
2023-05-05T23:47:46.397Z,101523.19
2023-05-05T23:50:13.436Z,101523.28
2023-05-05T23:52:41.723Z,101523.28
2023-05-05T23:55:10.273Z,101516.28
2023-05-05T23:57:37.763Z,101519.81
